Rock Creek, Ohio
Current Conditions -  °F | °C
As of 4:53 AM on Friday 19 Dec 2014 (Local Time) from KHZY Reporting Station
Overcast Overcast  
Wind Chill: 22°   Ceiling: 1700
Heat Index: 30°   Visibility: 10mi
Dew Point: 24°   Wind: 8mph
Humidity: 79%   Direction: 320°NW
Pressure: 30.15"   Gusts: NA
Location:  41.66°N, 80.86°W
Report Text: KHZY 190953Z AUTO 32007KT 10SM OVC017 M01/M04 A3015 RMK AO2 SLP218 T10111044
Loading
Personal Weather Stations






























Interactive Weather Map New forecast layout! Learn more

10-Day Weather Forecast

Advertisements
Track Severe Weather on mobile